sensor_id;sensor_type;location;lat;lon;timestamp;P1;durP1;ratioP1;P2;durP2;ratioP2
46717;SDS011;32448;44.960;-0.698;2023-03-14T00:02:17;58.22;;;7.90;;
46717;SDS011;32448;44.960;-0.698;2023-03-14T00:04:44;54.20;;;8.48;;
46717;SDS011;32448;44.960;-0.698;2023-03-14T00:07:12;62.53;;;9.32;;
46717;SDS011;32448;44.960;-0.698;2023-03-14T00:09:40;72.88;;;11.02;;
46717;SDS011;32448;44.960;-0.698;2023-03-14T00:12:08;65.03;;;9.63;;
46717;SDS011;32448;44.960;-0.698;2023-03-14T00:14:35;68.72;;;9.90;;
46717;SDS011;32448;44.960;-0.698;2023-03-14T00:17:03;59.00;;;8.15;;
46717;SDS011;32448;44.960;-0.698;2023-03-14T00:19:30;62.28;;;10.05;;
46717;SDS011;32448;44.960;-0.698;2023-03-14T00:21:57;61.05;;;9.45;;
46717;SDS011;32448;44.960;-0.698;2023-03-14T00:24:24;69.35;;;10.00;;
46717;SDS011;32448;44.960;-0.698;2023-03-14T00:26:51;57.45;;;9.23;;
46717;SDS011;32448;44.960;-0.698;2023-03-14T00:29:21;56.15;;;8.80;;
46717;SDS011;32448;44.960;-0.698;2023-03-14T00:31:51;47.72;;;8.48;;
46717;SDS011;32448;44.960;-0.698;2023-03-14T00:34:18;51.92;;;8.77;;
46717;SDS011;32448;44.960;-0.698;2023-03-14T00:36:45;45.63;;;7.03;;
46717;SDS011;32448;44.960;-0.698;2023-03-14T00:39:13;51.80;;;9.13;;
46717;SDS011;32448;44.960;-0.698;2023-03-14T00:41:40;44.88;;;7.35;;
46717;SDS011;32448;44.960;-0.698;2023-03-14T00:44:07;52.95;;;7.13;;
46717;SDS011;32448;44.960;-0.698;2023-03-14T00:46:34;42.50;;;6.35;;
46717;SDS011;32448;44.960;-0.698;2023-03-14T00:49:05;43.63;;;5.95;;
46717;SDS011;32448;44.960;-0.698;2023-03-14T00:51:32;40.38;;;6.43;;
46717;SDS011;32448;44.960;-0.698;2023-03-14T00:54:00;34.80;;;6.10;;
46717;SDS011;32448;44.960;-0.698;2023-03-14T00:56:27;55.15;;;6.88;;
46717;SDS011;32448;44.960;-0.698;2023-03-14T00:58:55;33.35;;;5.82;;
46717;SDS011;32448;44.960;-0.698;2023-03-14T01:01:23;33.00;;;6.13;;
46717;SDS011;32448;44.960;-0.698;2023-03-14T01:03:51;34.80;;;5.82;;
46717;SDS011;32448;44.960;-0.698;2023-03-14T01:06:22;31.70;;;5.18;;
46717;SDS011;32448;44.960;-0.698;2023-03-14T01:12:25;28.40;;;4.95;;
46717;SDS011;32448;44.960;-0.698;2023-03-14T01:14:54;30.58;;;5.88;;
46717;SDS011;32448;44.960;-0.698;2023-03-14T01:17:23;34.50;;;4.78;;
46717;SDS011;32448;44.960;-0.698;2023-03-14T01:19:50;33.90;;;5.32;;
46717;SDS011;32448;44.960;-0.698;2023-03-14T01:22:17;41.67;;;5.32;;
46717;SDS011;32448;44.960;-0.698;2023-03-14T01:24:45;40.80;;;6.45;;
46717;SDS011;32448;44.960;-0.698;2023-03-14T01:27:12;38.85;;;6.05;;
46717;SDS011;32448;44.960;-0.698;2023-03-14T01:29:39;42.80;;;7.72;;
46717;SDS011;32448;44.960;-0.698;2023-03-14T01:32:07;45.90;;;7.50;;
46717;SDS011;32448;44.960;-0.698;2023-03-14T01:35:33;29.48;;;6.15;;
46717;SDS011;32448;44.960;-0.698;2023-03-14T01:38:00;47.42;;;7.85;;
46717;SDS011;32448;44.960;-0.698;2023-03-14T01:52:59;56.25;;;9.30;;
46717;SDS011;32448;44.960;-0.698;2023-03-14T01:55:28;45.03;;;7.63;;
46717;SDS011;32448;44.960;-0.698;2023-03-14T01:58:00;53.67;;;8.25;;
46717;SDS011;32448;44.960;-0.698;2023-03-14T02:00:30;54.38;;;8.02;;
46717;SDS011;32448;44.960;-0.698;2023-03-14T02:02:58;62.17;;;8.27;;
46717;SDS011;32448;44.960;-0.698;2023-03-14T02:05:34;52.25;;;8.73;;
46717;SDS011;32448;44.960;-0.698;2023-03-14T02:08:11;53.85;;;8.52;;
46717;SDS011;32448;44.960;-0.698;2023-03-14T02:10:48;62.85;;;9.38;;
46717;SDS011;32448;44.960;-0.698;2023-03-14T02:13:43;46.75;;;7.45;;
46717;SDS011;32448;44.960;-0.698;2023-03-14T02:16:40;38.03;;;5.95;;
46717;SDS011;32448;44.960;-0.698;2023-03-14T02:19:30;33.80;;;4.60;;
46717;SDS011;32448;44.960;-0.698;2023-03-14T02:22:18;30.88;;;5.10;;
46717;SDS011;32448;44.960;-0.698;2023-03-14T02:27:25;34.50;;;6.07;;
46717;SDS011;32448;44.960;-0.698;2023-03-14T02:30:01;41.30;;;5.72;;
46717;SDS011;32448;44.960;-0.698;2023-03-14T02:32:32;25.80;;;4.30;;
46717;SDS011;32448;44.960;-0.698;2023-03-14T02:35:06;31.25;;;4.30;;
46717;SDS011;32448;44.960;-0.698;2023-03-14T02:37:37;21.17;;;2.92;;
46717;SDS011;32448;44.960;-0.698;2023-03-14T02:40:10;22.63;;;3.10;;
46717;SDS011;32448;44.960;-0.698;2023-03-14T02:42:39;27.17;;;3.80;;
46717;SDS011;32448;44.960;-0.698;2023-03-14T02:47:44;23.33;;;3.85;;
46717;SDS011;32448;44.960;-0.698;2023-03-14T02:50:22;24.85;;;3.50;;
46717;SDS011;32448;44.960;-0.698;2023-03-14T02:52:53;31.00;;;3.85;;
46717;SDS011;32448;44.960;-0.698;2023-03-14T02:55:24;28.17;;;3.75;;
46717;SDS011;32448;44.960;-0.698;2023-03-14T02:57:57;27.60;;;3.78;;
46717;SDS011;32448;44.960;-0.698;2023-03-14T03:00:24;32.72;;;5.80;;
46717;SDS011;32448;44.960;-0.698;2023-03-14T03:02:52;31.63;;;4.53;;
46717;SDS011;32448;44.960;-0.698;2023-03-14T03:05:20;31.40;;;4.03;;
46717;SDS011;32448;44.960;-0.698;2023-03-14T03:07:47;28.88;;;4.70;;
46717;SDS011;32448;44.960;-0.698;2023-03-14T03:10:14;22.42;;;4.05;;
46717;SDS011;32448;44.960;-0.698;2023-03-14T03:12:42;33.28;;;3.78;;
46717;SDS011;32448;44.960;-0.698;2023-03-14T03:15:10;25.77;;;3.70;;
46717;SDS011;32448;44.960;-0.698;2023-03-14T03:17:39;20.98;;;3.50;;
46717;SDS011;32448;44.960;-0.698;2023-03-14T03:20:06;29.65;;;3.72;;
46717;SDS011;32448;44.960;-0.698;2023-03-14T03:22:37;27.52;;;4.38;;
46717;SDS011;32448;44.960;-0.698;2023-03-14T03:26:02;32.83;;;4.50;;
46717;SDS011;32448;44.960;-0.698;2023-03-14T03:28:30;26.08;;;4.18;;
46717;SDS011;32448;44.960;-0.698;2023-03-14T03:30:58;31.77;;;4.78;;
46717;SDS011;32448;44.960;-0.698;2023-03-14T03:33:26;36.28;;;4.82;;
46717;SDS011;32448;44.960;-0.698;2023-03-14T03:35:53;28.48;;;4.13;;
46717;SDS011;32448;44.960;-0.698;2023-03-14T03:38:29;37.55;;;6.22;;
46717;SDS011;32448;44.960;-0.698;2023-03-14T03:41:13;34.67;;;5.22;;
46717;SDS011;32448;44.960;-0.698;2023-03-14T03:43:40;32.65;;;5.00;;
46717;SDS011;32448;44.960;-0.698;2023-03-14T03:46:09;36.92;;;5.90;;
46717;SDS011;32448;44.960;-0.698;2023-03-14T03:48:37;46.13;;;6.63;;
46717;SDS011;32448;44.960;-0.698;2023-03-14T03:51:05;46.17;;;6.65;;
46717;SDS011;32448;44.960;-0.698;2023-03-14T03:53:33;44.83;;;6.55;;
46717;SDS011;32448;44.960;-0.698;2023-03-14T03:56:06;42.47;;;6.13;;
46717;SDS011;32448;44.960;-0.698;2023-03-14T03:58:33;37.63;;;4.65;;
46717;SDS011;32448;44.960;-0.698;2023-03-14T04:01:02;38.50;;;5.30;;
46717;SDS011;32448;44.960;-0.698;2023-03-14T04:03:29;34.33;;;5.45;;
46717;SDS011;32448;44.960;-0.698;2023-03-14T04:06:00;41.90;;;5.72;;
46717;SDS011;32448;44.960;-0.698;2023-03-14T04:08:32;28.40;;;4.10;;
46717;SDS011;32448;44.960;-0.698;2023-03-14T04:11:01;33.95;;;5.43;;
46717;SDS011;32448;44.960;-0.698;2023-03-14T04:13:49;38.13;;;5.95;;
46717;SDS011;32448;44.960;-0.698;2023-03-14T04:16:18;39.17;;;5.72;;
46717;SDS011;32448;44.960;-0.698;2023-03-14T04:18:49;40.17;;;6.20;;
46717;SDS011;32448;44.960;-0.698;2023-03-14T04:21:19;38.35;;;5.82;;
46717;SDS011;32448;44.960;-0.698;2023-03-14T04:23:51;43.75;;;6.10;;
46717;SDS011;32448;44.960;-0.698;2023-03-14T04:26:19;38.95;;;6.18;;
46717;SDS011;32448;44.960;-0.698;2023-03-14T04:32:59;45.72;;;6.40;;
46717;SDS011;32448;44.960;-0.698;2023-03-14T04:35:32;49.92;;;7.55;;
46717;SDS011;32448;44.960;-0.698;2023-03-14T04:38:06;44.30;;;6.80;;
46717;SDS011;32448;44.960;-0.698;2023-03-14T04:40:36;57.33;;;8.40;;
46717;SDS011;32448;44.960;-0.698;2023-03-14T04:43:05;65.93;;;9.20;;
46717;SDS011;32448;44.960;-0.698;2023-03-14T04:45:34;60.35;;;8.88;;
46717;SDS011;32448;44.960;-0.698;2023-03-14T04:48:04;46.33;;;6.63;;
46717;SDS011;32448;44.960;-0.698;2023-03-14T04:50:32;54.17;;;7.63;;
46717;SDS011;32448;44.960;-0.698;2023-03-14T04:52:59;52.65;;;7.30;;
46717;SDS011;32448;44.960;-0.698;2023-03-14T04:55:26;52.72;;;9.85;;
46717;SDS011;32448;44.960;-0.698;2023-03-14T04:57:55;56.13;;;8.60;;
46717;SDS011;32448;44.960;-0.698;2023-03-14T05:00:23;58.20;;;8.20;;
46717;SDS011;32448;44.960;-0.698;2023-03-14T05:03:29;50.38;;;7.25;;
46717;SDS011;32448;44.960;-0.698;2023-03-14T05:06:08;50.08;;;7.90;;
46717;SDS011;32448;44.960;-0.698;2023-03-14T05:08:56;57.90;;;7.93;;
46717;SDS011;32448;44.960;-0.698;2023-03-14T05:12:05;50.75;;;6.90;;
46717;SDS011;32448;44.960;-0.698;2023-03-14T05:14:44;50.85;;;8.05;;
46717;SDS011;32448;44.960;-0.698;2023-03-14T05:17:19;39.95;;;6.82;;
46717;SDS011;32448;44.960;-0.698;2023-03-14T05:20:20;67.22;;;8.55;;
46717;SDS011;32448;44.960;-0.698;2023-03-14T05:22:54;54.63;;;7.75;;
46717;SDS011;32448;44.960;-0.698;2023-03-14T05:25:57;47.08;;;7.80;;
46717;SDS011;32448;44.960;-0.698;2023-03-14T05:28:37;60.60;;;7.25;;
46717;SDS011;32448;44.960;-0.698;2023-03-14T05:31:11;49.25;;;7.15;;
46717;SDS011;32448;44.960;-0.698;2023-03-14T05:33:41;47.47;;;8.18;;
46717;SDS011;32448;44.960;-0.698;2023-03-14T05:36:14;60.72;;;10.32;;
46717;SDS011;32448;44.960;-0.698;2023-03-14T05:39:00;61.47;;;8.50;;
46717;SDS011;32448;44.960;-0.698;2023-03-14T05:41:53;53.90;;;8.60;;
46717;SDS011;32448;44.960;-0.698;2023-03-14T05:44:22;63.22;;;7.95;;
46717;SDS011;32448;44.960;-0.698;2023-03-14T05:47:01;52.10;;;7.80;;
46717;SDS011;32448;44.960;-0.698;2023-03-14T05:49:35;50.10;;;8.18;;
46717;SDS011;32448;44.960;-0.698;2023-03-14T05:52:21;55.60;;;7.18;;
46717;SDS011;32448;44.960;-0.698;2023-03-14T05:55:15;46.03;;;7.25;;
46717;SDS011;32448;44.960;-0.698;2023-03-14T05:58:07;44.55;;;6.97;;
46717;SDS011;32448;44.960;-0.698;2023-03-14T06:00:54;43.75;;;7.60;;
46717;SDS011;32448;44.960;-0.698;2023-03-14T06:03:41;56.97;;;8.18;;
46717;SDS011;32448;44.960;-0.698;2023-03-14T06:06:08;46.53;;;7.85;;
46717;SDS011;32448;44.960;-0.698;2023-03-14T06:08:36;44.05;;;8.27;;
46717;SDS011;32448;44.960;-0.698;2023-03-14T06:11:04;55.33;;;9.15;;
46717;SDS011;32448;44.960;-0.698;2023-03-14T06:13:32;52.97;;;7.88;;
46717;SDS011;32448;44.960;-0.698;2023-03-14T06:15:59;50.25;;;7.85;;
46717;SDS011;32448;44.960;-0.698;2023-03-14T06:18:27;51.40;;;7.85;;
46717;SDS011;32448;44.960;-0.698;2023-03-14T06:21:05;49.13;;;6.82;;
46717;SDS011;32448;44.960;-0.698;2023-03-14T06:23:34;56.30;;;8.32;;
46717;SDS011;32448;44.960;-0.698;2023-03-14T06:26:02;59.33;;;6.88;;
46717;SDS011;32448;44.960;-0.698;2023-03-14T06:28:30;60.90;;;8.63;;
46717;SDS011;32448;44.960;-0.698;2023-03-14T06:31:00;44.90;;;8.02;;
46717;SDS011;32448;44.960;-0.698;2023-03-14T06:33:33;41.42;;;7.90;;
46717;SDS011;32448;44.960;-0.698;2023-03-14T06:36:00;50.83;;;8.40;;
46717;SDS011;32448;44.960;-0.698;2023-03-14T06:38:28;57.95;;;7.30;;
46717;SDS011;32448;44.960;-0.698;2023-03-14T06:41:00;59.50;;;8.32;;
46717;SDS011;32448;44.960;-0.698;2023-03-14T06:43:35;58.97;;;8.15;;
46717;SDS011;32448;44.960;-0.698;2023-03-14T06:46:05;68.22;;;8.48;;
46717;SDS011;32448;44.960;-0.698;2023-03-14T06:48:34;47.05;;;7.10;;
46717;SDS011;32448;44.960;-0.698;2023-03-14T06:51:01;55.33;;;7.88;;
46717;SDS011;32448;44.960;-0.698;2023-03-14T06:53:29;53.75;;;9.05;;
46717;SDS011;32448;44.960;-0.698;2023-03-14T06:55:58;45.08;;;7.28;;
46717;SDS011;32448;44.960;-0.698;2023-03-14T06:58:27;54.63;;;7.80;;
46717;SDS011;32448;44.960;-0.698;2023-03-14T07:00:55;47.40;;;7.43;;
46717;SDS011;32448;44.960;-0.698;2023-03-14T07:03:27;37.60;;;6.60;;
46717;SDS011;32448;44.960;-0.698;2023-03-14T07:05:55;56.22;;;8.73;;
46717;SDS011;32448;44.960;-0.698;2023-03-14T07:08:23;47.65;;;6.50;;
46717;SDS011;32448;44.960;-0.698;2023-03-14T07:10:50;37.42;;;6.75;;
46717;SDS011;32448;44.960;-0.698;2023-03-14T07:13:17;45.20;;;6.57;;
46717;SDS011;32448;44.960;-0.698;2023-03-14T07:15:54;42.65;;;6.60;;
46717;SDS011;32448;44.960;-0.698;2023-03-14T07:18:22;45.38;;;5.95;;
46717;SDS011;32448;44.960;-0.698;2023-03-14T07:20:49;51.33;;;8.48;;
46717;SDS011;32448;44.960;-0.698;2023-03-14T07:23:18;34.75;;;6.13;;
46717;SDS011;32448;44.960;-0.698;2023-03-14T07:25:48;37.58;;;7.15;;
46717;SDS011;32448;44.960;-0.698;2023-03-14T07:28:17;51.67;;;8.63;;
46717;SDS011;32448;44.960;-0.698;2023-03-14T07:30:46;39.33;;;6.97;;
46717;SDS011;32448;44.960;-0.698;2023-03-14T07:33:22;42.47;;;6.22;;
46717;SDS011;32448;44.960;-0.698;2023-03-14T07:35:50;33.90;;;5.95;;
46717;SDS011;32448;44.960;-0.698;2023-03-14T07:38:17;51.40;;;8.07;;
46717;SDS011;32448;44.960;-0.698;2023-03-14T07:41:06;46.55;;;6.13;;
46717;SDS011;32448;44.960;-0.698;2023-03-14T07:43:39;42.42;;;7.20;;
46717;SDS011;32448;44.960;-0.698;2023-03-14T07:46:07;48.72;;;7.32;;
46717;SDS011;32448;44.960;-0.698;2023-03-14T07:48:34;42.90;;;7.07;;
46717;SDS011;32448;44.960;-0.698;2023-03-14T07:51:02;37.72;;;6.13;;
46717;SDS011;32448;44.960;-0.698;2023-03-14T07:53:29;28.08;;;5.53;;
46717;SDS011;32448;44.960;-0.698;2023-03-14T07:55:56;29.60;;;5.03;;
46717;SDS011;32448;44.960;-0.698;2023-03-14T07:58:23;35.22;;;5.93;;
46717;SDS011;32448;44.960;-0.698;2023-03-14T08:00:51;34.63;;;6.07;;
46717;SDS011;32448;44.960;-0.698;2023-03-14T08:03:19;32.67;;;5.90;;
46717;SDS011;32448;44.960;-0.698;2023-03-14T08:05:47;32.50;;;5.95;;
46717;SDS011;32448;44.960;-0.698;2023-03-14T08:08:16;35.83;;;5.05;;
46717;SDS011;32448;44.960;-0.698;2023-03-14T08:10:43;39.25;;;5.63;;
46717;SDS011;32448;44.960;-0.698;2023-03-14T08:13:11;28.92;;;5.13;;
46717;SDS011;32448;44.960;-0.698;2023-03-14T08:15:38;36.05;;;6.47;;
46717;SDS011;32448;44.960;-0.698;2023-03-14T08:18:06;32.45;;;5.07;;
46717;SDS011;32448;44.960;-0.698;2023-03-14T08:20:35;35.72;;;6.05;;
46717;SDS011;32448;44.960;-0.698;2023-03-14T08:23:02;32.50;;;6.25;;
46717;SDS011;32448;44.960;-0.698;2023-03-14T08:25:30;29.60;;;4.90;;
46717;SDS011;32448;44.960;-0.698;2023-03-14T08:27:57;38.25;;;4.88;;
46717;SDS011;32448;44.960;-0.698;2023-03-14T08:30:25;32.63;;;4.85;;
46717;SDS011;32448;44.960;-0.698;2023-03-14T08:32:52;40.72;;;5.78;;
46717;SDS011;32448;44.960;-0.698;2023-03-14T08:35:20;37.28;;;5.68;;
46717;SDS011;32448;44.960;-0.698;2023-03-14T08:37:47;35.45;;;5.28;;
46717;SDS011;32448;44.960;-0.698;2023-03-14T08:40:14;34.58;;;6.10;;
46717;SDS011;32448;44.960;-0.698;2023-03-14T08:42:43;32.72;;;4.82;;
46717;SDS011;32448;44.960;-0.698;2023-03-14T08:45:12;38.72;;;6.00;;
46717;SDS011;32448;44.960;-0.698;2023-03-14T08:47:40;38.53;;;6.00;;
46717;SDS011;32448;44.960;-0.698;2023-03-14T08:50:07;40.83;;;5.80;;
46717;SDS011;32448;44.960;-0.698;2023-03-14T08:52:39;33.95;;;5.75;;
46717;SDS011;32448;44.960;-0.698;2023-03-14T08:55:08;57.55;;;6.47;;
46717;SDS011;32448;44.960;-0.698;2023-03-14T08:57:36;39.72;;;6.38;;
46717;SDS011;32448;44.960;-0.698;2023-03-14T09:00:04;37.72;;;5.45;;
46717;SDS011;32448;44.960;-0.698;2023-03-14T09:02:37;32.92;;;6.15;;
46717;SDS011;32448;44.960;-0.698;2023-03-14T09:05:05;32.83;;;5.07;;
46717;SDS011;32448;44.960;-0.698;2023-03-14T09:07:33;33.03;;;5.47;;
46717;SDS011;32448;44.960;-0.698;2023-03-14T09:10:01;33.78;;;4.90;;
46717;SDS011;32448;44.960;-0.698;2023-03-14T09:12:30;21.65;;;4.15;;
46717;SDS011;32448;44.960;-0.698;2023-03-14T09:14:57;26.08;;;4.50;;
46717;SDS011;32448;44.960;-0.698;2023-03-14T09:17:24;25.98;;;4.82;;
46717;SDS011;32448;44.960;-0.698;2023-03-14T09:19:52;26.92;;;4.63;;
46717;SDS011;32448;44.960;-0.698;2023-03-14T09:22:19;24.30;;;3.67;;
46717;SDS011;32448;44.960;-0.698;2023-03-14T09:24:48;26.73;;;3.78;;
46717;SDS011;32448;44.960;-0.698;2023-03-14T09:27:16;27.92;;;3.90;;
46717;SDS011;32448;44.960;-0.698;2023-03-14T09:29:43;31.73;;;4.18;;
46717;SDS011;32448;44.960;-0.698;2023-03-14T09:32:10;24.73;;;3.97;;
46717;SDS011;32448;44.960;-0.698;2023-03-14T09:34:37;29.70;;;3.80;;
46717;SDS011;32448;44.960;-0.698;2023-03-14T09:37:04;26.42;;;4.38;;
46717;SDS011;32448;44.960;-0.698;2023-03-14T09:39:32;25.45;;;3.83;;
46717;SDS011;32448;44.960;-0.698;2023-03-14T09:42:00;24.08;;;4.32;;
46717;SDS011;32448;44.960;-0.698;2023-03-14T09:44:32;27.77;;;4.85;;
46717;SDS011;32448;44.960;-0.698;2023-03-14T09:47:06;27.85;;;4.55;;
46717;SDS011;32448;44.960;-0.698;2023-03-14T09:49:41;30.30;;;4.55;;
46717;SDS011;32448;44.960;-0.698;2023-03-14T09:52:13;27.50;;;4.75;;
46717;SDS011;32448;44.960;-0.698;2023-03-14T09:54:49;29.88;;;5.75;;
46717;SDS011;32448;44.960;-0.698;2023-03-14T09:57:39;25.85;;;4.05;;
46717;SDS011;32448;44.960;-0.698;2023-03-14T10:02:53;24.48;;;4.55;;
46717;SDS011;32448;44.960;-0.698;2023-03-14T10:05:26;29.50;;;4.20;;
46717;SDS011;32448;44.960;-0.698;2023-03-14T10:07:56;23.05;;;3.88;;
46717;SDS011;32448;44.960;-0.698;2023-03-14T10:10:24;24.27;;;4.68;;
46717;SDS011;32448;44.960;-0.698;2023-03-14T10:12:57;25.80;;;4.40;;
46717;SDS011;32448;44.960;-0.698;2023-03-14T10:15:35;28.02;;;4.05;;
46717;SDS011;32448;44.960;-0.698;2023-03-14T10:18:05;32.88;;;5.28;;
46717;SDS011;32448;44.960;-0.698;2023-03-14T10:20:43;33.33;;;4.70;;
46717;SDS011;32448;44.960;-0.698;2023-03-14T10:25:40;34.03;;;5.35;;
46717;SDS011;32448;44.960;-0.698;2023-03-14T10:28:26;25.20;;;4.30;;
46717;SDS011;32448;44.960;-0.698;2023-03-14T10:30:58;26.25;;;4.30;;
46717;SDS011;32448;44.960;-0.698;2023-03-14T10:33:27;28.00;;;4.32;;
46717;SDS011;32448;44.960;-0.698;2023-03-14T10:36:06;23.23;;;4.07;;
46717;SDS011;32448;44.960;-0.698;2023-03-14T10:39:37;21.33;;;4.22;;
46717;SDS011;32448;44.960;-0.698;2023-03-14T10:42:25;27.20;;;3.65;;
46717;SDS011;32448;44.960;-0.698;2023-03-14T10:44:59;23.23;;;3.80;;
46717;SDS011;32448;44.960;-0.698;2023-03-14T10:47:38;24.42;;;4.38;;
46717;SDS011;32448;44.960;-0.698;2023-03-14T10:50:26;27.20;;;5.05;;
46717;SDS011;32448;44.960;-0.698;2023-03-14T10:52:55;29.80;;;4.20;;
46717;SDS011;32448;44.960;-0.698;2023-03-14T10:55:32;20.95;;;4.03;;
46717;SDS011;32448;44.960;-0.698;2023-03-14T10:58:17;27.48;;;4.60;;
46717;SDS011;32448;44.960;-0.698;2023-03-14T11:04:00;30.25;;;4.90;;
46717;SDS011;32448;44.960;-0.698;2023-03-14T11:06:31;34.42;;;5.25;;
46717;SDS011;32448;44.960;-0.698;2023-03-14T11:12:08;21.80;;;3.83;;
46717;SDS011;32448;44.960;-0.698;2023-03-14T11:14:43;15.65;;;3.05;;
46717;SDS011;32448;44.960;-0.698;2023-03-14T11:17:26;15.30;;;2.40;;
46717;SDS011;32448;44.960;-0.698;2023-03-14T11:22:46;9.10;;;2.28;;
46717;SDS011;32448;44.960;-0.698;2023-03-14T11:36:11;6.65;;;1.38;;
46717;SDS011;32448;44.960;-0.698;2023-03-14T11:39:00;7.22;;;1.50;;
46717;SDS011;32448;44.960;-0.698;2023-03-14T11:41:30;11.73;;;1.35;;
46717;SDS011;32448;44.960;-0.698;2023-03-14T11:44:10;9.20;;;1.83;;
46717;SDS011;32448;44.960;-0.698;2023-03-14T11:47:03;9.70;;;1.70;;
46717;SDS011;32448;44.960;-0.698;2023-03-14T11:52:15;10.60;;;1.95;;
46717;SDS011;32448;44.960;-0.698;2023-03-14T11:55:06;13.20;;;1.70;;
46717;SDS011;32448;44.960;-0.698;2023-03-14T11:57:39;8.88;;;1.98;;
46717;SDS011;32448;44.960;-0.698;2023-03-14T12:13:57;27.52;;;3.38;;
46717;SDS011;32448;44.960;-0.698;2023-03-14T12:16:27;18.13;;;2.95;;
46717;SDS011;32448;44.960;-0.698;2023-03-14T12:24:49;22.33;;;3.25;;
46717;SDS011;32448;44.960;-0.698;2023-03-14T12:27:40;20.15;;;3.17;;
46717;SDS011;32448;44.960;-0.698;2023-03-14T12:35:44;25.23;;;3.53;;
46717;SDS011;32448;44.960;-0.698;2023-03-14T12:41:01;22.80;;;3.30;;
46717;SDS011;32448;44.960;-0.698;2023-03-14T12:43:35;25.13;;;3.90;;
46717;SDS011;32448;44.960;-0.698;2023-03-14T12:48:40;23.15;;;3.65;;
46717;SDS011;32448;44.960;-0.698;2023-03-14T12:51:20;22.55;;;3.53;;
46717;SDS011;32448;44.960;-0.698;2023-03-14T12:53:59;26.20;;;4.07;;
46717;SDS011;32448;44.960;-0.698;2023-03-14T12:59:38;27.15;;;4.07;;
46717;SDS011;32448;44.960;-0.698;2023-03-14T13:02:15;16.15;;;2.92;;
46717;SDS011;32448;44.960;-0.698;2023-03-14T13:15:14;12.18;;;2.33;;
46717;SDS011;32448;44.960;-0.698;2023-03-14T13:17:46;17.52;;;2.65;;
46717;SDS011;32448;44.960;-0.698;2023-03-14T13:20:17;15.10;;;3.22;;
46717;SDS011;32448;44.960;-0.698;2023-03-14T13:22:58;12.30;;;3.00;;
46717;SDS011;32448;44.960;-0.698;2023-03-14T13:25:29;10.82;;;2.08;;
46717;SDS011;32448;44.960;-0.698;2023-03-14T13:30:28;17.25;;;2.38;;
46717;SDS011;32448;44.960;-0.698;2023-03-14T13:33:03;14.95;;;2.58;;
46717;SDS011;32448;44.960;-0.698;2023-03-14T13:35:42;16.95;;;3.53;;
46717;SDS011;32448;44.960;-0.698;2023-03-14T13:38:17;18.13;;;2.90;;
46717;SDS011;32448;44.960;-0.698;2023-03-14T13:40:50;19.05;;;2.65;;
46717;SDS011;32448;44.960;-0.698;2023-03-14T13:43:21;16.10;;;2.55;;
46717;SDS011;32448;44.960;-0.698;2023-03-14T13:45:55;12.57;;;2.90;;
46717;SDS011;32448;44.960;-0.698;2023-03-14T13:48:29;12.00;;;2.70;;
46717;SDS011;32448;44.960;-0.698;2023-03-14T13:51:07;17.23;;;3.40;;
46717;SDS011;32448;44.960;-0.698;2023-03-14T13:53:57;18.13;;;2.30;;
46717;SDS011;32448;44.960;-0.698;2023-03-14T13:56:30;10.20;;;1.83;;
46717;SDS011;32448;44.960;-0.698;2023-03-14T13:58:58;13.93;;;2.78;;
46717;SDS011;32448;44.960;-0.698;2023-03-14T14:01:27;12.60;;;2.05;;
46717;SDS011;32448;44.960;-0.698;2023-03-14T14:04:01;16.65;;;2.30;;
46717;SDS011;32448;44.960;-0.698;2023-03-14T14:06:44;10.18;;;2.13;;
46717;SDS011;32448;44.960;-0.698;2023-03-14T14:11:54;14.73;;;2.13;;
46717;SDS011;32448;44.960;-0.698;2023-03-14T14:17:48;16.30;;;2.67;;
46717;SDS011;32448;44.960;-0.698;2023-03-14T14:20:43;16.08;;;2.60;;
46717;SDS011;32448;44.960;-0.698;2023-03-14T14:23:14;16.73;;;2.72;;
46717;SDS011;32448;44.960;-0.698;2023-03-14T14:25:46;11.20;;;2.33;;
46717;SDS011;32448;44.960;-0.698;2023-03-14T14:33:56;12.48;;;1.83;;
46717;SDS011;32448;44.960;-0.698;2023-03-14T14:36:29;9.25;;;2.72;;
46717;SDS011;32448;44.960;-0.698;2023-03-14T14:39:14;15.93;;;1.88;;
46717;SDS011;32448;44.960;-0.698;2023-03-14T14:41:45;12.93;;;2.20;;
46717;SDS011;32448;44.960;-0.698;2023-03-14T14:44:21;19.02;;;3.22;;
46717;SDS011;32448;44.960;-0.698;2023-03-14T14:46:58;16.23;;;2.35;;
46717;SDS011;32448;44.960;-0.698;2023-03-14T14:49:32;14.93;;;2.17;;
46717;SDS011;32448;44.960;-0.698;2023-03-14T14:52:04;15.45;;;2.55;;
46717;SDS011;32448;44.960;-0.698;2023-03-14T14:54:38;16.90;;;2.65;;
46717;SDS011;32448;44.960;-0.698;2023-03-14T14:57:30;17.83;;;2.60;;
46717;SDS011;32448;44.960;-0.698;2023-03-14T15:00:04;14.15;;;2.58;;
46717;SDS011;32448;44.960;-0.698;2023-03-14T15:02:35;20.65;;;4.03;;
46717;SDS011;32448;44.960;-0.698;2023-03-14T15:05:14;18.70;;;2.90;;
46717;SDS011;32448;44.960;-0.698;2023-03-14T15:07:43;17.17;;;2.70;;
46717;SDS011;32448;44.960;-0.698;2023-03-14T15:10:11;18.35;;;2.78;;
46717;SDS011;32448;44.960;-0.698;2023-03-14T15:12:41;19.15;;;3.13;;
46717;SDS011;32448;44.960;-0.698;2023-03-14T15:15:08;15.55;;;2.85;;
46717;SDS011;32448;44.960;-0.698;2023-03-14T15:17:37;17.27;;;2.92;;
46717;SDS011;32448;44.960;-0.698;2023-03-14T15:20:06;14.63;;;3.03;;
46717;SDS011;32448;44.960;-0.698;2023-03-14T15:22:40;19.27;;;3.28;;
46717;SDS011;32448;44.960;-0.698;2023-03-14T15:25:07;23.02;;;3.10;;
46717;SDS011;32448;44.960;-0.698;2023-03-14T15:27:52;17.20;;;2.55;;
46717;SDS011;32448;44.960;-0.698;2023-03-14T15:30:19;20.20;;;3.92;;
46717;SDS011;32448;44.960;-0.698;2023-03-14T15:32:46;18.98;;;3.05;;
46717;SDS011;32448;44.960;-0.698;2023-03-14T15:35:14;15.85;;;2.78;;
46717;SDS011;32448;44.960;-0.698;2023-03-14T15:37:43;14.35;;;2.78;;
46717;SDS011;32448;44.960;-0.698;2023-03-14T15:40:12;19.38;;;3.20;;
46717;SDS011;32448;44.960;-0.698;2023-03-14T15:42:40;16.33;;;2.50;;
46717;SDS011;32448;44.960;-0.698;2023-03-14T15:45:08;21.88;;;2.80;;
46717;SDS011;32448;44.960;-0.698;2023-03-14T15:47:35;21.33;;;2.97;;
46717;SDS011;32448;44.960;-0.698;2023-03-14T15:50:03;20.27;;;2.80;;
46717;SDS011;32448;44.960;-0.698;2023-03-14T15:52:31;18.58;;;3.05;;
46717;SDS011;32448;44.960;-0.698;2023-03-14T15:54:58;19.20;;;2.67;;
46717;SDS011;32448;44.960;-0.698;2023-03-14T15:57:28;19.10;;;3.85;;
46717;SDS011;32448;44.960;-0.698;2023-03-14T15:59:55;18.65;;;2.88;;
46717;SDS011;32448;44.960;-0.698;2023-03-14T16:02:22;15.57;;;2.85;;
46717;SDS011;32448;44.960;-0.698;2023-03-14T16:04:49;15.55;;;2.88;;
46717;SDS011;32448;44.960;-0.698;2023-03-14T16:07:17;17.88;;;3.22;;
46717;SDS011;32448;44.960;-0.698;2023-03-14T16:09:44;17.75;;;3.17;;
46717;SDS011;32448;44.960;-0.698;2023-03-14T16:12:11;13.23;;;2.50;;
46717;SDS011;32448;44.960;-0.698;2023-03-14T16:14:39;20.08;;;2.72;;
46717;SDS011;32448;44.960;-0.698;2023-03-14T16:17:09;21.80;;;3.55;;
46717;SDS011;32448;44.960;-0.698;2023-03-14T16:19:38;16.05;;;2.65;;
46717;SDS011;32448;44.960;-0.698;2023-03-14T16:22:06;18.38;;;2.95;;
46717;SDS011;32448;44.960;-0.698;2023-03-14T16:24:34;14.85;;;3.28;;
46717;SDS011;32448;44.960;-0.698;2023-03-14T16:27:01;18.77;;;3.45;;
46717;SDS011;32448;44.960;-0.698;2023-03-14T16:29:29;24.10;;;3.65;;
46717;SDS011;32448;44.960;-0.698;2023-03-14T16:31:56;23.20;;;3.20;;
46717;SDS011;32448;44.960;-0.698;2023-03-14T16:34:24;17.13;;;3.13;;
46717;SDS011;32448;44.960;-0.698;2023-03-14T16:36:51;22.42;;;3.58;;
46717;SDS011;32448;44.960;-0.698;2023-03-14T16:39:18;16.13;;;2.63;;
46717;SDS011;32448;44.960;-0.698;2023-03-14T16:41:46;22.50;;;3.28;;
46717;SDS011;32448;44.960;-0.698;2023-03-14T16:44:13;14.60;;;2.70;;